Map

Track Data

SID SEASON NUMBER BASIN SUBBASIN NAME ISO_TIME NATURE LAT LON WMO_WIND WMO_PRES WMO_AGENCY TRACK_TYPE DIST2LAND LANDFALL IFLAG USA_AGENCY USA_ATCF_ID USA_LAT USA_LON USA_RECORD USA_STATUS USA_WIND USA_PRES USA_SSHS USA_R34_NE USA_R34_SE USA_R34_SW USA_R34_NW USA_R50_NE USA_R50_SE USA_R50_SW USA_R50_NW USA_R64_NE USA_R64_SE USA_R64_SW USA_R64_NW USA_POCI USA_ROCI USA_RMW USA_EYE TOKYO_LAT TOKYO_LON TOKYO_GRADE TOKYO_WIND TOKYO_PRES TOKYO_R50_DIR TOKYO_R50_LONG TOKYO_R50_SHORT TOKYO_R30_DIR TOKYO_R30_LONG TOKYO_R30_SHORT TOKYO_LAND CMA_LAT CMA_LON CMA_CAT CMA_WIND CMA_PRES HKO_LAT HKO_LON HKO_CAT HKO_WIND HKO_PRES NEWDELHI_LAT NEWDELHI_LON NEWDELHI_GRADE NEWDELHI_WIND NEWDELHI_PRES NEWDELHI_CI NEWDELHI_DP NEWDELHI_POCI REUNION_LAT REUNION_LON REUNION_TYPE REUNION_WIND REUNION_PRES REUNION_TNUM REUNION_CI REUNION_RMW REUNION_R34_NE REUNION_R34_SE REUNION_R34_SW REUNION_R34_NW REUNION_R50_NE REUNION_R50_SE REUNION_R50_SW REUNION_R50_NW REUNION_R64_NE REUNION_R64_SE REUNION_R64_SW REUNION_R64_NW BOM_LAT BOM_LON BOM_TYPE BOM_WIND BOM_PRES BOM_TNUM BOM_CI BOM_RMW BOM_R34_NE BOM_R34_SE BOM_R34_SW BOM_R34_NW BOM_R50_NE BOM_R50_SE BOM_R50_SW BOM_R50_NW BOM_R64_NE BOM_R64_SE BOM_R64_SW BOM_R64_NW BOM_ROCI BOM_POCI BOM_EYE BOM_POS_METHOD BOM_PRES_METHOD NADI_LAT NADI_LON NADI_CAT NADI_WIND NADI_PRES WELLINGTON_LAT WELLINGTON_LON WELLINGTON_WIND WELLINGTON_PRES DS824_LAT DS824_LON DS824_STAGE DS824_WIND DS824_PRES TD9636_LAT TD9636_LON TD9636_STAGE TD9636_WIND TD9636_PRES TD9635_LAT TD9635_LON TD9635_WIND TD9635_PRES TD9635_ROCI NEUMANN_LAT NEUMANN_LON NEUMANN_CLASS NEUMANN_WIND NEUMANN_PRES MLC_LAT MLC_LON MLC_CLASS MLC_WIND MLC_PRES USA_GUST BOM_GUST BOM_GUST_PER REUNION_GUST REUNION_GUST_PER USA_SEAHGT USA_SEARAD_NE USA_SEARAD_SE USA_SEARAD_SW USA_SEARAD_NW STORM_SPEED STORM_DIR
1914242N17130 1914 29 WP MM NOT_NAMED 1914-08-30 10:00:00 NR 17.2000 130.400 main 741 726 __________O___ -1 17.2000 130.400 7 4 222
1914242N17130 1914 29 WP MM NOT_NAMED 1914-08-30 12:00:00 NR 17.1027 130.303 main 726 712 __________P___ -1 17.1027 130.303 7 4 224
1914242N17130 1914 29 WP MM NOT_NAMED 1914-08-30 15:00:00 NR 16.9619 130.157 main 712 682 __________P___ -1 16.9619 130.157 7 4 227
1914242N17130 1914 29 WP MM NOT_NAMED 1914-08-30 18:00:00 NR 16.8346 130.007 main 682 668 __________P___ -1 16.8346 130.007 7 4 231
1914242N17130 1914 29 WP MM NOT_NAMED 1914-08-30 21:00:00 NR 16.7290 129.853 main 668 658 __________P___ -1 16.7290 129.853 7 4 236
1914242N17130 1914 29 WP MM NOT_NAMED 1914-08-30 22:00:00 NR 16.7000 129.800 main 658 649 __________O___ -1 16.7000 129.800 7 3 244
1914242N17130 1914 29 WP MM NOT_NAMED 1914-08-31 00:00:00 NR 16.6526 129.692 main 649 625 __________P___ -1 16.6526 129.692 7 3 251
1914242N17130 1914 29 WP MM NOT_NAMED 1914-08-31 03:00:00 NR 16.6066 129.523 main 625 606 __________P___ -1 16.6066 129.523 7 3 259
1914242N17130 1914 29 WP MM NOT_NAMED 1914-08-31 06:00:00 NR 16.5878 129.347 main 606 597 __________P___ -1 16.5878 129.347 7 3 268
1914242N17130 1914 29 WP MM NOT_NAMED 1914-08-31 09:00:00 NR 16.5933 129.163 main 597 587 __________P___ -1 16.5933 129.163 7 4 273
1914242N17130 1914 29 WP MM NOT_NAMED 1914-08-31 10:00:00 NR 16.6000 129.100 main 587 578 __________O___ -1 16.6000 129.100 7 4 274
1914242N17130 1914 29 WP MM NOT_NAMED 1914-08-31 12:00:00 NR 16.6084 128.962 main 578 551 __________P___ -1 16.6084 128.962 7 4 277
1914242N17130 1914 29 WP MM NOT_NAMED 1914-08-31 15:00:00 NR 16.6397 128.748 main 551 540 __________P___ -1 16.6397 128.748 7 4 282
1914242N17130 1914 29 WP MM NOT_NAMED 1914-08-31 18:00:00 NR 16.6934 128.541 main 540 531 __________P___ -1 16.6934 128.541 7 4 289
1914242N17130 1914 29 WP MM NOT_NAMED 1914-08-31 21:00:00 NR 16.7696 128.355 main 537 529 __________P___ -1 16.7696 128.355 7 4 295
1914242N17130 1914 29 WP MM NOT_NAMED 1914-08-31 22:00:00 NR 16.8000 128.300 main 529 521 __________O___ -1 16.8000 128.300 7 3 303
1914242N17130 1914 29 WP MM NOT_NAMED 1914-09-01 00:00:00 NR 16.8635 128.208 main 528 519 __________P___ -1 16.8635 128.208 7 3 312
1914242N17130 1914 29 WP MM NOT_NAMED 1914-09-01 03:00:00 NR 16.9777 128.095 main 527 518 __________P___ -1 16.9777 128.095 7 3 321
1914242N17130 1914 29 WP MM NOT_NAMED 1914-09-01 06:00:00 NR 17.1090 128.004 main 526 526 __________P___ -1 17.1090 128.004 7 3 329
1914242N17130 1914 29 WP MM NOT_NAMED 1914-09-01 09:00:00 NR 17.2513 127.925 main 533 533 __________P___ -1 17.2513 127.925 7 3 334
1914242N17130 1914 29 WP MM NOT_NAMED 1914-09-01 10:00:00 NR 17.3000 127.900 main 533 533 __________O___ -1 17.3000 127.900 7 3 331
1914242N17130 1914 29 WP MM NOT_NAMED 1914-09-01 12:00:00 NR 17.3943 127.844 main 534 534 __________P___ -1 17.3943 127.844 7 3 333
1914242N17130 1914 29 WP MM NOT_NAMED 1914-09-01 15:00:00 NR 17.5420 127.767 main 542 542 __________P___ -1 17.5420 127.767 7 3 334
1914242N17130 1914 29 WP MM NOT_NAMED 1914-09-01 18:00:00 NR 17.6945 127.695 main 551 548 __________P___ -1 17.6945 127.695 7 3 336
1914242N17130 1914 29 WP MM NOT_NAMED 1914-09-01 21:00:00 NR 17.8488 127.624 main 548 550 __________P___ -1 17.8488 127.624 7 3 337
1914242N17130 1914 29 WP MM NOT_NAMED 1914-09-01 22:00:00 NR 17.9000 127.600 main 550 550 __________O___ -1 17.9000 127.600 3 3 336
1914242N17130 1914 29 WP MM NOT_NAMED 1914-09-02 00:00:00 NR 17.9974 127.553 main 552 542 __________P___ -1 17.9974 127.553 3 3 335
1914242N17130 1914 29 WP MM NOT_NAMED 1914-09-02 03:00:00 NR 18.1434 127.482 main 544 536 __________P___ -1 18.1434 127.482 3 3 336
1914242N17130 1914 29 WP MM NOT_NAMED 1914-09-02 06:00:00 NR 18.2921 127.408 main 538 527 __________P___ -1 18.2921 127.408 3 3 334
1914242N17130 1914 29 WP MM NOT_NAMED 1914-09-02 09:00:00 NR 18.4466 127.328 main 527 527 __________P___ -1 18.4466 127.328 3 3 333
1914242N17130 1914 29 WP MM NOT_NAMED 1914-09-02 10:00:00 NR 18.5000 127.300 main 527 517 __________O___ -1 18.5000 127.300 4 4 333
1914242N17130 1914 29 WP MM NOT_NAMED 1914-09-02 12:00:00 NR 18.6188 127.234 main 517 507 __________P___ -1 18.6188 127.234 4 4 332
1914242N17130 1914 29 WP MM NOT_NAMED 1914-09-02 15:00:00 NR 18.8036 127.128 main 507 498 __________P___ -1 18.8036 127.128 4 4 331
1914242N17130 1914 29 WP MM NOT_NAMED 1914-09-02 18:00:00 NR 18.9850 127.023 main 499 490 __________P___ -1 18.9850 127.023 4 4 331
1914242N17130 1914 29 WP MM NOT_NAMED 1914-09-02 21:00:00 NR 19.1505 126.928 main 492 492 __________P___ -1 19.1505 126.928 4 4 330
1914242N17130 1914 29 WP MM NOT_NAMED 1914-09-02 22:00:00 NR 19.2000 126.900 main 492 492 __________O___ -1 19.2000 126.900 4 3 332
1914242N17130 1914 29 WP MM NOT_NAMED 1914-09-03 00:00:00 NR 19.2812 126.853 main 494 484 __________P___ -1 19.2812 126.853 4 3 331
1914242N17130 1914 29 WP MM NOT_NAMED 1914-09-03 03:00:00 NR 19.3839 126.794 main 486 478 __________P___ -1 19.3839 126.794 4 2 333
1914242N17130 1914 29 WP MM NOT_NAMED 1914-09-03 06:00:00 NR 19.4750 126.748 main 478 478 __________P___ -1 19.4750 126.748 4 2 338
1914242N17130 1914 29 WP MM NOT_NAMED 1914-09-03 09:00:00 NR 19.5670 126.711 main 481 481 __________P___ -1 19.5670 126.711 4 2 342
1914242N17130 1914 29 WP MM NOT_NAMED 1914-09-03 10:00:00 NR 19.6000 126.700 main 481 481 __________O___ -1 19.6000 126.700 4 2 339
1914242N17130 1914 29 WP MM NOT_NAMED 1914-09-03 12:00:00 NR 19.6776 126.680 main 484 484 __________P___ -1 19.6776 126.680 4 2 347
1914242N17130 1914 29 WP MM NOT_NAMED 1914-09-03 15:00:00 NR 19.8004 126.657 main 488 478 __________P___ -1 19.8004 126.657 4 3 351
1914242N17130 1914 29 WP MM NOT_NAMED 1914-09-03 18:00:00 NR 19.9279 126.636 main 481 481 __________P___ -1 19.9279 126.636 4 3 352
1914242N17130 1914 29 WP MM NOT_NAMED 1914-09-03 21:00:00 NR 20.0571 126.610 main 489 489 __________P___ -1 20.0571 126.610 4 3 347
1914242N17130 1914 29 WP MM NOT_NAMED 1914-09-03 22:00:00 NR 20.1000 126.600 main 489 489 __________O___ -1 20.1000 126.600 4 2 341
1914242N17130 1914 29 WP MM NOT_NAMED 1914-09-04 00:00:00 NR 20.1755 126.572 main 494 484 __________P___ -1 20.1755 126.572 4 2 339
1914242N17130 1914 29 WP MM NOT_NAMED 1914-09-04 03:00:00 NR 20.2885 126.525 main 489 489 __________P___ -1 20.2885 126.525 4 3 338
1914242N17130 1914 29 WP MM NOT_NAMED 1914-09-04 06:00:00 NR 20.4096 126.472 main 494 489 __________P___ -1 20.4096 126.472 4 3 340
1914242N17130 1914 29 WP MM NOT_NAMED 1914-09-04 09:00:00 NR 20.5483 126.418 main 489 495 __________P___ -1 20.5483 126.418 4 3 341
1914242N17130 1914 29 WP MM NOT_NAMED 1914-09-04 10:00:00 NR 20.6000 126.400 main 495 495 __________O___ -1 20.6000 126.400 4 4 346
1914242N17130 1914 29 WP MM NOT_NAMED 1914-09-04 12:00:00 NR 20.7241 126.367 main 500 497 __________P___ -1 20.7241 126.367 4 4 347
1914242N17130 1914 29 WP MM NOT_NAMED 1914-09-04 15:00:00 NR 20.9293 126.317 main 503 503 __________P___ -1 20.9293 126.317 4 4 347
1914242N17130 1914 29 WP MM NOT_NAMED 1914-09-04 18:00:00 NR 21.1407 126.267 main 516 514 __________P___ -1 21.1407 126.267 4 4 346
1914242N17130 1914 29 WP MM NOT_NAMED 1914-09-04 21:00:00 NR 21.3397 126.217 main 521 528 __________P___ -1 21.3397 126.217 4 4 348
1914242N17130 1914 29 WP MM NOT_NAMED 1914-09-04 22:00:00 NR 21.4000 126.200 main 528 525 __________O___ -1 21.4000 126.200 4 3 343
1914242N17130 1914 29 WP MM NOT_NAMED 1914-09-05 00:00:00 NR 21.5005 126.167 main 525 511 __________P___ -1 21.5005 126.167 4 3 342
1914242N17130 1914 29 WP MM NOT_NAMED 1914-09-05 03:00:00 NR 21.6322 126.117 main 511 507 __________P___ -1 21.6322 126.117 4 3 338
1914242N17130 1914 29 WP MM NOT_NAMED 1914-09-05 06:00:00 NR 21.7496 126.067 main 507 491 __________P___ -1 21.7496 126.067 4 2 337
1914242N17130 1914 29 WP MM NOT_NAMED 1914-09-05 09:00:00 NR 21.8620 126.017 main 491 491 __________P___ -1 21.8620 126.017 4 2 342
1914242N17130 1914 29 WP MM NOT_NAMED 1914-09-05 10:00:00 NR 21.9000 126.000 main 491 491 __________O___ -1 21.9000 126.000 4 2 343
1914242N17130 1914 29 WP MM NOT_NAMED 1914-09-05 12:00:00 NR 21.9465 125.990 main 491 487 __________P___ -1 21.9465 125.990 4 1 347
1914242N17130 1914 29 WP MM NOT_NAMED 1914-09-05 15:00:00 NR 22.0154 125.975 main 487 475 __________P___ -1 22.0154 125.975 4 2 341
1914242N17130 1914 29 WP MM NOT_NAMED 1914-09-05 18:00:00 NR 22.1224 125.936 main 475 459 __________P___ -1 22.1224 125.936 4 3 338
1914242N17130 1914 29 WP MM NOT_NAMED 1914-09-05 21:00:00 NR 22.3113 125.846 main 459 457 __________P___ -1 22.3113 125.846 4 5 336
1914242N17130 1914 29 WP MM NOT_NAMED 1914-09-05 22:00:00 NR 22.4000 125.800 main 457 436 __________O___ -1 22.4000 125.800 4 7 338
1914242N17130 1914 29 WP MM NOT_NAMED 1914-09-06 00:00:00 NR 22.6574 125.700 main 436 398 __________P___ -1 22.6574 125.700 4 9 339
1914242N17130 1914 29 WP MM NOT_NAMED 1914-09-06 03:00:00 NR 23.1322 125.493 main 398 346 __________P___ -1 23.1322 125.493 4 11 336
1914242N17130 1914 29 WP MM NOT_NAMED 1914-09-06 06:00:00 NR 23.6528 125.211 main 346 295 __________P___ -1 23.6528 125.211 4 12 330
1914242N17130 1914 29 WP MM NOT_NAMED 1914-09-06 09:00:00 NR 24.1509 124.843 main 295 283 __________P___ -1 24.1509 124.843 4 12 324
1914242N17130 1914 29 WP MM NOT_NAMED 1914-09-06 10:00:00 NR 24.3000 124.700 main 283 246 __________O___ -1 24.3000 124.700 4 12 315
1914242N17130 1914 29 WP MM NOT_NAMED 1914-09-06 12:00:00 NR 24.5663 124.381 main 246 181 __________P___ -1 24.5663 124.381 4 12 308
1914242N17130 1914 29 WP MM NOT_NAMED 1914-09-06 15:00:00 NR 24.9157 123.826 main 181 122 __________P___ -1 24.9157 123.826 4 12 301
1914242N17130 1914 29 WP MM NOT_NAMED 1914-09-06 18:00:00 NR 25.1883 123.218 main 122 75 __________P___ -1 25.1883 123.218 4 12 292
1914242N17130 1914 29 WP MM NOT_NAMED 1914-09-06 21:00:00 NR 25.3653 122.600 main 75 60 __________P___ -1 25.3653 122.600 4 12 286
1914242N17130 1914 29 WP MM NOT_NAMED 1914-09-06 22:00:00 NR 25.4000 122.400 main 60 44 __________O___ -1 25.4000 122.400 4 10 277
1914242N17130 1914 29 WP MM NOT_NAMED 1914-09-07 00:00:00 NR 25.4321 122.032 main 44 22 __________P___ -1 25.4321 122.032 4 10 269
1914242N17130 1914 29 WP MM NOT_NAMED 1914-09-07 03:00:00 NR 25.3923 121.493 main 22 22 __________P___ -1 25.3923 121.493 4 10 261
1914242N17130 1914 29 WP MM NOT_NAMED 1914-09-07 06:00:00 NR 25.2833 120.971 main 30 30 __________P___ -1 25.2833 120.971 4 10 255
1914242N17130 1914 29 WP MM NOT_NAMED 1914-09-07 09:00:00 NR 25.1454 120.465 main 51 61 __________P___ -1 25.1454 120.465 4 10 253
1914242N17130 1914 29 WP MM NOT_NAMED 1914-09-07 10:00:00 NR 25.1000 120.300 main 68 45 __________O___ -1 25.1000 120.300 4 10 256
1914242N17130 1914 29 WP MM NOT_NAMED 1914-09-07 12:00:00 NR 25.0287 119.935 main 45 30 __________P___ -1 25.0287 119.935 4 10 257
1914242N17130 1914 29 WP MM NOT_NAMED 1914-09-07 15:00:00 NR 24.9153 119.399 main 30 11 __________P___ -1 24.9153 119.399 4 10 257
1914242N17130 1914 29 WP MM NOT_NAMED 1914-09-07 18:00:00 NR 24.8077 118.911 main 11 0 __________P___ -1 24.8077 118.911 4 8 256
1914242N17130 1914 29 WP MM NOT_NAMED 1914-09-07 21:00:00 NR 24.7213 118.509 main 0 0 __________P___ -1 24.7213 118.509 4 7 257
1914242N17130 1914 29 WP MM NOT_NAMED 1914-09-07 22:00:00 NR 24.7000 118.400 main 0 0 __________O___ -1 24.7000 118.400 4 5 260
1914242N17130 1914 29 WP MM NOT_NAMED 1914-09-08 00:00:00 NR 24.6765 118.235 main 0 0 __________P___ -1 24.6765 118.235 4 4 264
1914242N17130 1914 29 WP MM NOT_NAMED 1914-09-08 03:00:00 NR 24.6670 118.074 main 0 0 __________P___ -1 24.6670 118.074 4 2 270
1914242N17130 1914 29 WP MM NOT_NAMED 1914-09-08 06:00:00 NR 24.6775 117.983 main 0 0 __________P___ -1 24.6775 117.983 4 1 282
1914242N17130 1914 29 WP MM NOT_NAMED 1914-09-08 09:00:00 NR 24.6949 117.921 main 0 0 __________P___ -1 24.6949 117.921 4 1 287
1914242N17130 1914 29 WP MM NOT_NAMED 1914-09-08 10:00:00 NR 24.7000 117.900 main 0 0 __________O___ -1 24.7000 117.900 4 1 280
1914242N17130 1914 29 WP MM NOT_NAMED 1914-09-08 12:00:00 NR 24.7071 117.850 main 0 0 __________P___ -1 24.7071 117.850 4 2 275
1914242N17130 1914 29 WP MM NOT_NAMED 1914-09-08 15:00:00 NR 24.7107 117.759 main 0 0 __________P___ -1 24.7107 117.759 4 2 270
1914242N17130 1914 29 WP MM NOT_NAMED 1914-09-08 18:00:00 NR 24.7083 117.653 main 0 0 __________P___ -1 24.7083 117.653 4 2 268
1914242N17130 1914 29 WP MM NOT_NAMED 1914-09-08 21:00:00 NR 24.7023 117.539 main 0 0 __________P___ -1 24.7023 117.539 4 2 267
1914242N17130 1914 29 WP MM NOT_NAMED 1914-09-08 22:00:00 NR 24.7000 117.500 main 0 __________O___ -1 24.7000 117.500 7 2 267

Digital Typhoon Data and Search

About IBTrACS Database

This database is a web-friendly format of International Best Track Archive for Climate Stewardship (IBTrACS), a global best track data archive curated by NOAA dating back to 1842.

Updated: 2021-10-21